Time;durP1;ratioP1;P1;durP2;ratioP2;P2;SDS_P1;SDS_P2;PMS_P1;PMS_P2;Temp;Humidity;BMP_temperature;BMP_pressure;BME280_temperature;BME280_humidity;BME280_pressure;Samples;Min_cycle;Max_cycle;Signal;HPM_P1;HPM_P2
2022/03/04 00:02:08;;;;;;;12.93;9.02;;;;;;;3.11;42.62;93496.91;5010538;28;20033;-74
2022/03/04 00:04:37;;;;;;;13.85;8.00;;;;;;;3.13;42.43;93496.63;5004004;28;20534;-75
2022/03/04 00:07:04;;;;;;;15.90;8.70;;;;;;;3.08;42.43;93494.84;5016803;28;20044;-75
2022/03/04 00:09:42;;;;;;;12.80;7.90;;;;;;;3.13;42.46;93507.94;5004217;28;20522;-74
2022/03/04 00:12:08;;;;;;;17.77;9.20;;;;;;;3.03;42.70;93502.75;5018171;28;20318;-77
2022/03/04 00:14:42;;;;;;;14.60;9.63;;;;;;;3.02;42.80;93500.38;5010341;28;20633;-75
2022/03/04 00:17:08;;;;;;;15.00;8.68;;;;;;;3.07;42.65;93497.72;5015765;28;20033;-76
2022/03/04 00:19:33;;;;;;;13.70;8.07;;;;;;;2.92;42.90;93480.22;5009257;28;20446;-76
2022/03/04 00:21:58;;;;;;;13.27;8.30;;;;;;;2.85;42.77;93477.09;5010326;28;20325;-76
2022/03/04 00:24:25;;;;;;;12.60;7.40;;;;;;;2.99;42.66;93490.44;5020958;28;20057;-75
2022/03/04 00:26:50;;;;;;;14.10;8.52;;;;;;;2.81;42.90;93470.84;5024475;28;20036;-74
2022/03/04 00:29:16;;;;;;;14.30;8.05;;;;;;;2.84;42.69;93473.69;5016370;28;20333;-74
2022/03/04 00:31:42;;;;;;;16.50;8.00;;;;;;;2.98;42.68;93492.28;5020179;28;20029;-76
2022/03/04 00:34:08;;;;;;;15.95;8.25;;;;;;;2.72;42.53;93443.59;5017610;28;20415;-76
2022/03/04 00:36:38;;;;;;;13.40;7.88;;;;;;;2.95;42.48;93490.19;5020716;28;20037;-76
2022/03/04 00:39:09;;;;;;;13.35;9.23;;;;;;;2.69;42.90;93486.16;5028211;28;20037;-75
2022/03/04 00:41:35;;;;;;;13.65;8.30;;;;;;;2.69;42.67;93462.53;5020019;28;20084;-76
2022/03/04 00:44:01;;;;;;;14.68;8.38;;;;;;;2.87;42.58;93488.13;5017120;28;20582;-75
2022/03/04 00:46:26;;;;;;;20.10;10.18;;;;;;;2.86;42.63;93486.56;5023149;28;20100;-76
2022/03/04 00:48:51;;;;;;;18.10;9.65;;;;;;;2.85;42.80;93485.00;5013710;28;20144;-74
2022/03/04 00:51:17;;;;;;;16.38;9.05;;;;;;;2.71;42.76;93471.69;5030509;28;20052;-75
2022/03/04 00:53:43;;;;;;;16.52;9.48;;;;;;;2.73;42.92;93481.94;5017571;28;20041;-78
2022/03/04 00:56:11;;;;;;;15.50;8.63;;;;;;;2.77;43.10;93482.94;5037568;28;20057;-74
2022/03/04 00:58:38;;;;;;;15.63;9.43;;;;;;;2.80;42.95;93485.03;5033001;28;20017;-76
2022/03/04 01:01:05;;;;;;;13.15;8.57;;;;;;;2.76;42.84;93468.25;5022330;28;20029;-75
2022/03/04 01:03:31;;;;;;;15.65;8.35;;;;;;;2.71;43.18;93460.41;5012678;28;20033;-76
2022/03/04 01:05:57;;;;;;;18.40;10.00;;;;;;;2.94;42.70;93467.59;5021527;28;20653;-76
2022/03/04 01:08:23;;;;;;;19.45;10.77;;;;;;;2.88;42.89;93472.13;5024236;28;20075;-74
2022/03/04 01:10:48;;;;;;;20.38;11.07;;;;;;;2.80;42.94;93466.63;5023961;28;20554;-76
2022/03/04 01:13:14;;;;;;;27.10;10.68;;;;;;;2.71;43.04;93452.53;5026281;28;20033;-75
2022/03/04 01:15:40;;;;;;;16.15;9.95;;;;;;;2.68;43.03;93442.56;5022536;28;20033;-77
2022/03/04 01:18:05;;;;;;;17.65;9.73;;;;;;;2.52;43.03;93423.50;5020884;28;20033;-77
2022/03/04 01:20:31;;;;;;;17.75;10.13;;;;;;;2.84;42.87;93467.69;5026001;28;20905;-77
2022/03/04 01:22:57;;;;;;;19.27;11.80;;;;;;;2.62;43.45;93459.41;5025256;28;20571;-78
2022/03/04 01:25:23;;;;;;;19.60;10.98;;;;;;;2.71;43.26;93449.88;5025125;28;20148;-75
2022/03/04 01:27:49;;;;;;;22.83;12.13;;;;;;;2.39;43.64;93430.16;5026548;28;20033;-77
2022/03/04 01:30:14;;;;;;;19.73;11.60;;;;;;;2.50;43.87;93436.88;5030001;28;20112;-76
2022/03/04 01:32:40;;;;;;;21.52;12.65;;;;;;;2.53;43.64;93425.06;5025454;28;20039;-77
2022/03/04 01:35:06;;;;;;;26.13;11.40;;;;;;;2.66;43.58;93434.16;5024215;28;20064;-77
2022/03/04 01:37:31;;;;;;;21.52;12.70;;;;;;;2.44;43.38;93424.88;5029759;28;20398;-77
2022/03/04 01:39:57;;;;;;;18.45;10.10;;;;;;;2.59;43.34;93445.00;5025789;28;20041;-78
2022/03/04 01:42:22;;;;;;;14.77;9.05;;;;;;;2.74;43.19;93446.75;5024594;28;20030;-78
2022/03/04 01:44:48;;;;;;;20.15;10.38;;;;;;;2.52;43.52;93434.00;5024204;28;20045;-77
2022/03/04 01:47:14;;;;;;;19.48;9.85;;;;;;;2.65;43.44;93438.63;5023245;28;20741;-74
2022/03/04 01:49:40;;;;;;;18.48;9.75;;;;;;;2.51;43.45;93427.97;5028744;28;20033;-77
2022/03/04 01:52:06;;;;;;;19.83;10.88;;;;;;;2.56;43.16;93424.53;5024771;28;20924;-76
2022/03/04 01:54:32;;;;;;;19.77;11.77;;;;;;;2.70;43.15;93429.94;5027064;28;20032;-77
2022/03/04 01:56:58;;;;;;;16.98;11.10;;;;;;;2.34;43.33;93385.56;5031966;28;20041;-78
2022/03/04 01:59:23;;;;;;;19.27;11.13;;;;;;;2.67;43.25;93436.53;5021941;28;20452;-78
2022/03/04 02:01:49;;;;;;;22.38;10.93;;;;;;;2.38;43.96;93419.91;5036278;28;20442;-78
2022/03/04 02:04:14;;;;;;;23.73;11.55;;;;;;;2.48;43.65;93425.09;5026872;28;20036;-77
2022/03/04 02:06:40;;;;;;;23.83;13.20;;;;;;;2.35;43.88;93420.47;5024239;28;20037;-75
2022/03/04 02:09:05;;;;;;;24.35;12.60;;;;;;;2.48;44.03;93439.00;5026907;28;20046;-76
2022/03/04 02:11:31;;;;;;;26.98;13.45;;;;;;;2.25;44.20;93402.94;5025143;28;20463;-75
2022/03/04 02:13:56;;;;;;;21.50;10.77;;;;;;;2.39;44.06;93408.38;5022149;28;20021;-75
2022/03/04 02:16:26;;;;;;;17.58;11.85;;;;;;;2.44;44.05;93411.75;5038817;28;20031;-77
2022/03/04 02:18:51;;;;;;;17.77;11.30;;;;;;;2.46;43.45;93393.09;5027799;28;20029;-76
2022/03/04 02:21:20;;;;;;;22.40;12.73;;;;;;;2.58;43.41;93411.13;5020811;28;20127;-76
2022/03/04 02:23:47;;;;;;;18.35;11.68;;;;;;;2.32;44.04;93411.28;5021302;28;20090;-76
2022/03/04 02:26:12;;;;;;;21.02;11.93;;;;;;;2.33;44.30;93410.22;5024004;28;20031;-76
2022/03/04 02:28:38;;;;;;;21.05;11.77;;;;;;;2.41;43.95;93401.00;5022170;28;20033;-74
2022/03/04 02:31:03;;;;;;;22.27;12.60;;;;;;;2.41;44.48;93428.03;5022958;28;20060;-76
2022/03/04 02:33:29;;;;;;;17.73;10.25;;;;;;;2.33;43.64;93389.22;5025781;28;20061;-75
2022/03/04 02:35:54;;;;;;;24.90;13.10;;;;;;;2.41;44.20;93417.53;5027470;28;20136;-72
2022/03/04 02:38:20;;;;;;;22.98;12.73;;;;;;;2.23;44.56;93412.91;5021230;28;20065;-75
2022/03/04 02:40:45;;;;;;;19.00;11.40;;;;;;;2.27;44.42;93416.56;5024309;28;20549;-75
2022/03/04 02:43:10;;;;;;;22.33;11.93;;;;;;;2.22;44.33;93403.47;5018183;28;20069;-77
2022/03/04 02:45:36;;;;;;;20.83;11.77;;;;;;;2.38;44.19;93412.03;5024453;28;20401;-74
2022/03/04 02:48:01;;;;;;;20.05;12.23;;;;;;;2.37;44.12;93405.22;5024942;28;20615;-77
2022/03/04 02:50:27;;;;;;;15.70;11.65;;;;;;;2.40;44.04;93410.69;5018102;28;20400;-76
2022/03/04 02:52:52;;;;;;;26.67;13.07;;;;;;;2.40;44.05;93415.94;5020916;28;20041;-78
2022/03/04 02:55:18;;;;;;;18.65;12.07;;;;;;;2.28;44.12;93394.50;5018387;28;20040;-76
2022/03/04 02:57:45;;;;;;;23.58;12.57;;;;;;;2.29;44.37;93396.09;5024631;28;20037;-73
2022/03/04 03:00:13;;;;;;;21.02;11.38;;;;;;;2.47;43.93;93426.16;5029640;28;20083;-75
2022/03/04 03:02:39;;;;;;;26.77;13.65;;;;;;;2.40;43.97;93399.44;5023179;28;20115;-75
2022/03/04 03:05:05;;;;;;;27.95;13.35;;;;;;;1.98;44.63;93387.59;5029347;28;20252;-76
2022/03/04 03:07:30;;;;;;;28.88;13.73;;;;;;;2.11;44.87;93411.66;5022092;28;20387;-76
2022/03/04 03:09:56;;;;;;;24.08;13.02;;;;;;;2.25;44.59;93420.50;5025991;28;20041;-76
2022/03/04 03:12:21;;;;;;;24.15;14.45;;;;;;;2.27;44.53;93424.44;5021847;28;20040;-76
2022/03/04 03:14:47;;;;;;;26.77;14.77;;;;;;;2.07;44.77;93414.81;5020000;28;20038;-76
2022/03/04 03:17:12;;;;;;;26.70;15.48;;;;;;;1.97;44.97;93396.50;5024619;28;20037;-76
2022/03/04 03:19:38;;;;;;;25.77;15.68;;;;;;;2.05;45.14;93395.16;5024674;28;20016;-76
2022/03/04 03:22:04;;;;;;;21.10;12.50;;;;;;;2.18;44.94;93418.19;5021553;28;20033;-76
2022/03/04 03:24:29;;;;;;;24.63;14.70;;;;;;;2.05;45.20;93416.16;5024848;28;20172;-77
2022/03/04 03:26:55;;;;;;;33.85;16.05;;;;;;;2.25;44.84;93415.28;5017225;28;20417;-78
2022/03/04 03:29:20;;;;;;;31.50;16.77;;;;;;;2.19;44.71;93424.22;5027493;28;20037;-77
2022/03/04 03:31:48;;;;;;;34.75;17.92;;;;;;;2.13;45.30;93420.81;5022421;28;20173;-73
2022/03/04 03:34:14;;;;;;;31.50;15.25;;;;;;;2.09;45.38;93423.22;5030176;28;20042;-77
2022/03/04 03:36:44;;;;;;;26.40;14.23;;;;;;;2.26;44.61;93404.47;5027726;28;20091;-74
2022/03/04 03:39:10;;;;;;;29.27;14.95;;;;;;;2.41;44.36;93433.28;5023236;28;20559;-72
2022/03/04 03:41:36;;;;;;;24.45;14.35;;;;;;;2.32;44.55;93432.28;5024574;28;20037;-76
2022/03/04 03:44:02;;;;;;;29.48;16.23;;;;;;;2.00;45.10;93410.94;5023532;28;20028;-77
2022/03/04 03:46:27;;;;;;;36.03;18.85;;;;;;;2.18;45.14;93435.75;5021370;28;20029;-78
2022/03/04 03:48:53;;;;;;;26.48;16.60;;;;;;;2.11;45.24;93430.03;5015734;28;20049;-77
2022/03/04 03:51:18;;;;;;;31.77;16.10;;;;;;;1.80;45.21;93382.13;5025808;28;20038;-77
2022/03/04 03:53:47;;;;;;;34.58;16.38;;;;;;;2.17;45.08;93437.59;5027437;28;20380;-74
2022/03/04 03:56:12;;;;;;;22.50;12.88;;;;;;;2.19;44.66;93418.97;5020175;28;20025;-77
2022/03/04 03:58:38;;;;;;;26.38;14.43;;;;;;;2.41;43.96;93428.03;5020833;28;20029;-77
2022/03/04 04:01:04;;;;;;;31.08;14.95;;;;;;;2.32;44.27;93431.47;5026698;28;20068;-78
2022/03/04 04:03:30;;;;;;;24.92;13.02;;;;;;;2.05;44.44;93418.78;5021513;28;20412;-77
2022/03/04 04:05:55;;;;;;;24.63;13.38;;;;;;;1.76;45.07;93405.50;5020171;28;20536;-77
2022/03/04 04:08:21;;;;;;;19.50;11.32;;;;;;;1.77;45.25;93435.09;5022811;28;20037;-77
2022/03/04 04:10:46;;;;;;;23.55;12.65;;;;;;;1.92;45.03;93425.38;5023858;28;20031;-77
2022/03/04 04:13:11;;;;;;;27.70;14.18;;;;;;;2.04;44.44;93423.22;5015883;28;21181;-74
2022/03/04 04:15:38;;;;;;;22.20;13.68;;;;;;;1.80;44.98;93432.72;5026509;28;20040;-78
2022/03/04 04:18:09;;;;;;;25.25;13.98;;;;;;;1.50;45.87;93441.47;5024926;28;20098;-74
2022/03/04 04:20:35;;;;;;;27.45;14.55;;;;;;;1.32;46.35;93447.28;5024799;28;20040;-77
2022/03/04 04:23:00;;;;;;;32.00;16.95;;;;;;;1.31;46.46;93419.50;5021751;28;20408;-76
2022/03/04 04:25:26;;;;;;;24.77;15.13;;;;;;;1.41;45.96;93429.16;5020193;28;20024;-76
2022/03/04 04:27:51;;;;;;;27.33;13.77;;;;;;;1.36;46.31;93422.09;5025588;28;20028;-72
2022/03/04 04:30:16;;;;;;;22.45;11.73;;;;;;;1.37;46.10;93428.13;5017156;28;20029;-71
2022/03/04 04:32:42;;;;;;;18.23;11.93;;;;;;;1.27;45.95;93428.94;5023409;28;20040;-72
2022/03/04 04:35:08;;;;;;;19.17;11.20;;;;;;;1.39;45.78;93426.00;5023048;28;20870;-74
2022/03/04 04:37:33;;;;;;;19.65;11.48;;;;;;;1.50;45.84;93453.78;5021524;28;20029;-71
2022/03/04 04:39:58;;;;;;;22.08;10.82;;;;;;;1.52;45.78;93456.94;5012696;28;20450;-71
2022/03/04 04:42:24;;;;;;;15.30;9.73;;;;;;;1.58;45.62;93445.38;5022191;28;20396;-71
2022/03/04 04:44:51;;;;;;;17.17;9.52;;;;;;;1.51;45.41;93429.94;5020695;28;20036;-75
2022/03/04 04:47:17;;;;;;;19.53;10.17;;;;;;;1.56;45.53;93461.38;4982415;28;1153429;-71
2022/03/04 04:49:42;;;;;;;16.45;11.30;;;;;;;1.55;45.56;93462.41;5023357;28;20069;-72
2022/03/04 04:52:08;;;;;;;17.63;10.82;;;;;;;1.47;45.80;93449.84;5022730;28;20167;-71
2022/03/04 04:54:35;;;;;;;21.17;9.18;;;;;;;1.66;44.91;93443.00;5020838;28;20052;-72
2022/03/04 04:57:01;;;;;;;19.30;10.50;;;;;;;1.60;45.45;93465.03;5020605;28;20029;-71
2022/03/04 04:59:26;;;;;;;16.17;9.68;;;;;;;1.52;45.70;93457.69;5018908;28;20092;-71
2022/03/04 05:01:52;;;;;;;17.15;9.43;;;;;;;1.62;45.35;93452.44;5022148;28;20487;-71
2022/03/04 05:04:17;;;;;;;22.40;9.32;;;;;;;1.68;45.22;93472.34;5024849;28;20041;-72
2022/03/04 05:06:43;;;;;;;15.65;8.73;;;;;;;1.65;45.41;93472.88;5029957;28;20037;-72
2022/03/04 05:09:08;;;;;;;16.35;9.88;;;;;;;1.43;45.52;93443.56;5022734;28;20084;-71
2022/03/04 05:11:34;;;;;;;19.40;10.65;;;;;;;1.67;45.57;93476.00;5012548;28;20037;-71
2022/03/04 05:13:59;;;;;;;18.38;9.85;;;;;;;1.74;45.73;93474.97;5021921;28;20039;-71
2022/03/04 05:16:30;;;;;;;14.27;9.68;;;;;;;1.95;44.69;93477.31;5020359;28;20474;-74
2022/03/04 05:18:55;;;;;;;19.38;10.68;;;;;;;1.39;44.74;93379.63;5030485;28;20034;-73
2022/03/04 05:21:20;;;;;;;18.27;9.85;;;;;;;1.65;45.27;93459.78;5018582;28;20071;-71
2022/03/04 05:24:02;;;;;;;17.75;10.65;;;;;;;1.61;45.53;93456.13;5017223;28;20064;-71
2022/03/04 05:26:42;;;;;;;16.27;9.77;;;;;;;1.74;45.55;93467.09;5024285;28;20039;-71
2022/03/04 05:29:09;;;;;;;14.63;9.40;;;;;;;1.68;45.54;93458.44;5024861;28;20075;-71
2022/03/04 05:31:43;;;;;;;15.07;9.23;;;;;;;1.70;45.25;93458.19;5022926;28;20871;-72
2022/03/04 05:34:11;;;;;;;21.07;10.47;;;;;;;1.72;45.29;93463.97;5028138;28;20231;-71
2022/03/04 05:36:39;;;;;;;16.75;11.00;;;;;;;1.78;45.40;93468.13;5023260;28;20148;-74
2022/03/04 05:39:12;;;;;;;20.40;11.38;;;;;;;1.81;45.40;93470.22;5022147;28;20801;-74
2022/03/04 05:41:37;;;;;;;18.40;10.40;;;;;;;1.85;45.34;93473.88;5022684;28;20086;-71
2022/03/04 05:44:06;;;;;;;22.65;11.65;;;;;;;1.80;45.49;93468.66;5021477;28;20026;-71
2022/03/04 05:46:32;;;;;;;18.85;11.23;;;;;;;1.88;45.34;93471.53;5022086;28;20104;-71
2022/03/04 05:48:57;;;;;;;17.60;10.73;;;;;;;1.88;45.56;93474.16;5024916;28;20180;-72
2022/03/04 05:51:23;;;;;;;15.88;10.57;;;;;;;1.95;45.12;93479.13;5031158;28;20044;-71
2022/03/04 05:53:49;;;;;;;16.02;9.55;;;;;;;1.53;45.98;93448.00;5021831;28;20037;-71
2022/03/04 05:56:15;;;;;;;19.95;11.23;;;;;;;1.87;45.33;93448.19;5014208;28;20502;-72
2022/03/04 05:58:41;;;;;;;19.52;11.93;;;;;;;1.85;45.47;93466.03;5023958;28;20096;-72
2022/03/04 06:01:06;;;;;;;21.63;13.23;;;;;;;1.77;45.84;93463.94;5022049;28;20045;-71
2022/03/04 06:03:32;;;;;;;20.25;12.73;;;;;;;1.93;46.03;93483.84;5019255;28;20029;-72
2022/03/04 06:05:58;;;;;;;21.52;12.38;;;;;;;1.97;45.93;93472.56;5026443;28;20400;-73
2022/03/04 06:08:23;;;;;;;26.40;14.15;;;;;;;2.08;46.08;93478.56;5024123;28;20068;-72
2022/03/04 06:10:50;;;;;;;22.50;14.45;;;;;;;1.89;45.83;93462.63;5038025;28;20029;-74
2022/03/04 06:13:15;;;;;;;30.30;14.40;;;;;;;2.00;46.31;93477.28;5024377;28;20379;-74
2022/03/04 06:15:41;;;;;;;29.60;16.33;;;;;;;2.17;45.91;93461.19;5033936;28;20051;-74
2022/03/04 06:18:06;;;;;;;36.22;20.42;;;;;;;2.20;45.67;93455.44;5016776;28;20070;-73
2022/03/04 06:20:32;;;;;;;40.85;21.33;;;;;;;2.16;45.68;93457.00;5027997;28;20044;-76
2022/03/04 06:22:58;;;;;;;47.83;22.45;;;;;;;2.28;45.97;93464.56;5022423;28;20031;-73
2022/03/04 06:25:24;;;;;;;45.30;23.88;;;;;;;2.11;46.29;93474.63;5026176;28;21171;-76
2022/03/04 06:28:01;;;;;;;139.13;53.83;;;;;;;1.64;47.31;93466.06;5024958;28;20158;-75
2022/03/04 06:30:29;;;;;;;63.95;32.67;;;;;;;1.99;46.91;93446.06;5025240;28;20041;-77
2022/03/04 06:33:30;;;;;;;54.25;26.60;;;;;;;2.02;47.57;93480.41;5028022;28;20530;-77
2022/03/04 06:35:42;;;;;;;48.42;25.27;;;;;;;1.56;47.87;93457.97;5027272;28;20094;-75
2022/03/04 06:38:07;;;;;;;52.40;25.95;;;;;;;1.89;47.75;93462.63;5018039;28;20021;-72
2022/03/04 06:40:33;;;;;;;46.88;25.17;;;;;;;2.33;47.42;93475.84;5026337;28;20033;-75
2022/03/04 06:42:58;;;;;;;56.40;27.27;;;;;;;2.14;46.91;93453.88;5026699;28;20430;-75
2022/03/04 06:45:24;;;;;;;53.25;26.58;;;;;;;1.86;48.04;93488.56;5019818;28;20680;-75
2022/03/04 06:47:49;;;;;;;56.28;26.95;;;;;;;2.25;47.34;93468.53;5024072;28;20057;-74
2022/03/04 06:50:14;;;;;;;59.40;30.95;;;;;;;1.97;48.31;93498.78;5019165;28;20052;-75
2022/03/04 06:52:40;;;;;;;65.75;30.10;;;;;;;0.58;50.66;93432.09;5027481;28;20041;-74
2022/03/04 06:55:06;;;;;;;51.92;28.58;;;;;;;1.34;50.73;93481.84;5024591;28;20697;-73
2022/03/04 06:57:32;;;;;;;56.25;27.92;;;;;;;1.41;50.38;93508.56;5025549;28;20048;-75
2022/03/04 06:59:57;;;;;;;62.65;31.52;;;;;;;1.76;49.66;93510.38;5023268;28;20060;-74
2022/03/04 07:02:22;;;;;;;57.30;32.35;;;;;;;1.71;48.93;93451.91;5023746;28;20052;-74
2022/03/04 07:04:49;;;;;;;53.25;28.90;;;;;;;2.04;48.34;93456.53;5030986;28;20106;-74
2022/03/04 07:07:15;;;;;;;58.78;29.73;;;;;;;2.30;48.49;93513.13;5024369;28;20049;-74
2022/03/04 07:09:40;;;;;;;55.83;31.45;;;;;;;2.09;48.50;93480.91;5022030;28;20738;-74
2022/03/04 07:12:06;;;;;;;64.85;32.78;;;;;;;2.42;47.82;93492.59;5025626;28;20670;-74
2022/03/04 07:14:31;;;;;;;63.13;32.88;;;;;;;2.61;47.28;93499.84;5023986;28;20033;-75
2022/03/04 07:16:57;;;;;;;60.25;32.17;;;;;;;2.55;47.63;93516.69;5019835;28;20487;-75
2022/03/04 07:19:22;;;;;;;59.17;31.20;;;;;;;2.64;47.96;93515.84;5022682;28;20021;-74
2022/03/04 07:21:48;;;;;;;55.97;31.05;;;;;;;2.69;47.42;93497.44;5023789;28;20846;-74
2022/03/04 07:24:13;;;;;;;70.63;37.03;;;;;;;2.55;47.37;93495.69;5027440;28;20811;-74
2022/03/04 07:26:39;;;;;;;63.50;32.83;;;;;;;2.59;47.83;93507.22;5026516;28;20037;-75
2022/03/04 07:29:04;;;;;;;59.45;31.38;;;;;;;2.79;46.75;93492.09;5023105;28;20091;-74
2022/03/04 07:31:29;;;;;;;56.20;27.95;;;;;;;2.45;47.40;93507.78;5013949;28;20684;-74
2022/03/04 07:33:55;;;;;;;61.60;34.83;;;;;;;1.76;49.45;93514.81;5015441;28;20520;-74
2022/03/04 07:36:20;;;;;;;70.88;34.63;;;;;;;1.87;49.59;93495.41;5018179;28;20128;-74
2022/03/04 07:38:46;;;;;;;62.78;34.55;;;;;;;2.36;49.17;93522.53;5017658;28;20116;-74
2022/03/04 07:41:12;;;;;;;73.93;35.47;;;;;;;1.72;50.08;93498.06;5019853;28;20063;-73
2022/03/04 07:43:38;;;;;;;61.65;31.08;;;;;;;1.53;50.27;93514.31;5015302;28;20060;-74
2022/03/04 07:46:03;;;;;;;63.53;34.10;;;;;;;1.69;50.18;93499.34;5020960;28;20128;-74
2022/03/04 07:48:29;;;;;;;77.40;37.55;;;;;;;1.93;50.67;93502.22;5014883;28;20041;-74
2022/03/04 07:50:54;;;;;;;83.15;37.85;;;;;;;1.42;51.44;93494.44;5021260;28;20068;-74
2022/03/04 07:53:19;;;;;;;62.97;33.63;;;;;;;1.59;51.69;93515.09;5019750;28;20491;-75
2022/03/04 07:55:45;;;;;;;93.53;42.35;;;;;;;1.67;50.19;93491.75;5020234;28;20501;-74
2022/03/04 07:58:10;;;;;;;69.13;33.50;;;;;;;1.92;50.07;93521.59;5032764;28;20468;-75
2022/03/04 08:00:36;;;;;;;54.38;28.90;;;;;;;2.08;49.67;93518.69;5018434;28;20036;-75
2022/03/04 08:03:04;;;;;;;56.22;31.02;;;;;;;2.49;48.79;93495.72;5016913;28;20632;-75
2022/03/04 08:05:30;;;;;;;56.03;28.25;;;;;;;1.72;48.98;93524.28;5015322;28;20094;-74
2022/03/04 08:07:55;;;;;;;40.75;22.52;;;;;;;1.10;49.99;93501.75;5017211;28;20033;-73
2022/03/04 08:10:21;;;;;;;48.60;26.65;;;;;;;1.14;49.72;93502.78;5016381;28;20111;-74
2022/03/04 08:12:46;;;;;;;47.60;27.33;;;;;;;1.34;49.84;93521.13;5019637;28;20553;-74
2022/03/04 08:15:12;;;;;;;48.63;25.20;;;;;;;0.86;50.87;93521.63;5018525;28;20068;-73
2022/03/04 08:17:44;;;;;;;58.72;28.48;;;;;;;0.53;51.78;93507.97;5016797;28;21872;-75
2022/03/04 08:20:10;;;;;;;48.35;28.48;;;;;;;0.26;52.71;93502.09;5018312;28;20063;-74
2022/03/04 08:22:35;;;;;;;49.55;28.50;;;;;;;0.36;52.61;93512.59;5017938;28;20522;-74
2022/03/04 08:25:01;;;;;;;55.45;29.98;;;;;;;0.23;52.96;93531.41;5021401;28;20124;-74
2022/03/04 08:27:26;;;;;;;49.15;28.98;;;;;;;1.00;51.82;93523.47;5023923;28;20764;-75
2022/03/04 08:29:52;;;;;;;55.92;28.30;;;;;;;1.60;50.94;93522.69;5021734;28;20045;-75
2022/03/04 08:32:19;;;;;;;51.17;29.13;;;;;;;1.36;50.01;93507.78;5021471;28;20045;-75
2022/03/04 08:34:44;;;;;;;52.00;27.88;;;;;;;2.01;49.43;93538.41;5022613;28;20155;-74
2022/03/04 08:37:10;;;;;;;48.80;25.42;;;;;;;2.62;47.80;93528.47;5015234;28;20033;-75
2022/03/04 08:39:35;;;;;;;41.40;22.63;;;;;;;2.38;47.10;93523.06;5021089;28;20523;-76
2022/03/04 08:42:00;;;;;;;45.85;24.65;;;;;;;1.73;47.90;93520.56;5018674;28;20068;-75
2022/03/04 08:44:26;;;;;;;40.35;22.45;;;;;;;1.63;49.23;93543.13;5025403;28;20037;-75
2022/03/04 08:46:51;;;;;;;35.95;21.02;;;;;;;1.55;48.99;93546.28;5018349;28;20047;-77
2022/03/04 08:49:19;;;;;;;41.05;23.67;;;;;;;1.77;48.20;93526.84;5023687;28;20053;-76
2022/03/04 08:51:45;;;;;;;36.10;22.10;;;;;;;2.27;47.61;93521.50;5021250;28;20056;-73
2022/03/04 08:54:11;;;;;;;40.17;24.25;;;;;;;2.59;46.54;93528.22;5020144;28;20253;-76
2022/03/04 08:56:37;;;;;;;38.50;21.60;;;;;;;2.57;46.88;93535.56;5021675;28;20140;-75
2022/03/04 08:59:03;;;;;;;44.65;22.48;;;;;;;3.15;46.12;93526.03;5021385;28;20041;-76
2022/03/04 09:01:29;;;;;;;41.38;22.67;;;;;;;2.79;45.33;93528.13;5022016;28;20452;-77
2022/03/04 09:03:55;;;;;;;47.50;23.73;;;;;;;2.44;46.33;93536.94;5021636;28;20076;-77
2022/03/04 09:06:20;;;;;;;52.05;24.85;;;;;;;2.52;45.97;93525.88;5024528;28;20132;-76
2022/03/04 09:08:46;;;;;;;41.88;22.90;;;;;;;2.32;46.33;93487.38;5022143;28;20044;-76
2022/03/04 09:11:13;;;;;;;48.58;23.58;;;;;;;2.86;45.88;93502.31;5019154;28;20026;-73
2022/03/04 09:13:38;;;;;;;46.80;24.42;;;;;;;2.61;45.92;93526.09;5023396;28;20030;-77
2022/03/04 09:16:05;;;;;;;43.17;24.73;;;;;;;1.94;46.92;93530.00;5022858;28;21085;-75
2022/03/04 09:18:30;;;;;;;52.20;25.70;;;;;;;1.66;47.97;93534.75;5018263;28;20748;-76
2022/03/04 09:20:56;;;;;;;45.15;22.55;;;;;;;1.94;47.40;93530.81;5020601;28;20045;-79
2022/03/04 09:23:22;;;;;;;39.25;21.73;;;;;;;2.57;45.63;93514.56;5022805;28;20033;-77
2022/03/04 09:25:48;;;;;;;46.90;24.15;;;;;;;2.47;46.37;93521.44;5022404;28;20030;-76
2022/03/04 09:28:15;;;;;;;46.05;23.60;;;;;;;1.97;47.35;93532.88;5023771;28;20083;-72
2022/03/04 09:30:41;;;;;;;41.60;21.77;;;;;;;1.82;47.35;93516.34;5017830;28;20052;-75
2022/03/04 09:33:06;;;;;;;42.85;21.75;;;;;;;1.96;47.45;93528.69;5035366;28;20049;-74
2022/03/04 09:35:32;;;;;;;41.20;21.65;;;;;;;2.34;46.98;93535.16;5018711;28;20037;-74
2022/03/04 09:37:57;;;;;;;39.30;20.27;;;;;;;2.30;46.63;93536.75;5016777;28;20061;-76
2022/03/04 09:40:23;;;;;;;35.38;20.25;;;;;;;2.39;46.36;93540.38;5024503;28;20028;-76
2022/03/04 09:42:49;;;;;;;29.58;17.23;;;;;;;2.87;45.48;93524.91;5023809;28;20037;-74
2022/03/04 09:45:15;;;;;;;31.45;17.05;;;;;;;2.93;45.43;93502.81;5023405;28;20453;-76
2022/03/04 09:47:42;;;;;;;36.83;19.15;;;;;;;3.14;44.60;93525.25;5022832;28;20075;-75
2022/03/04 09:50:08;;;;;;;39.55;19.25;;;;;;;2.75;44.80;93509.47;5025501;28;20036;-74
2022/03/04 09:52:33;;;;;;;34.95;19.05;;;;;;;2.73;45.11;93526.56;5023899;28;20037;-74
2022/03/04 09:55:00;;;;;;;43.92;19.92;;;;;;;2.38;45.21;93523.06;5030008;28;20599;-74
2022/03/04 09:57:25;;;;;;;36.00;18.67;;;;;;;2.28;45.39;93528.34;5027528;28;20075;-78
2022/03/04 09:59:51;;;;;;;33.92;18.50;;;;;;;2.30;45.60;93533.31;5026573;28;20048;-75
2022/03/04 10:02:17;;;;;;;33.45;16.95;;;;;;;2.94;44.51;93526.16;5029252;28;20393;-76
2022/03/04 10:04:44;;;;;;;27.05;15.40;;;;;;;2.43;44.40;93496.78;5025408;28;20808;-72
2022/03/04 10:07:15;;;;;;;26.98;15.73;;;;;;;2.94;44.62;93514.88;5029079;28;20033;-74
2022/03/04 10:09:43;;;;;;;24.85;14.48;;;;;;;3.08;44.33;93515.06;5024273;28;20033;-76
2022/03/04 10:12:10;;;;;;;41.50;16.42;;;;;;;3.38;43.77;93493.78;5027139;28;20107;-71
2022/03/04 10:14:59;;;;;;;30.23;15.00;;;;;;;3.84;42.48;93512.59;5023470;28;20492;-73
2022/03/04 10:17:26;;;;;;;35.40;16.75;;;;;;;3.68;42.91;93508.53;5024050;28;20555;-71
2022/03/04 10:19:56;;;;;;;29.55;14.98;;;;;;;4.19;41.83;93514.88;5025880;28;20028;-71
2022/03/04 10:22:22;;;;;;;31.83;17.05;;;;;;;4.34;41.28;93484.19;5027793;28;20072;-72
2022/03/04 10:24:49;;;;;;;27.40;16.52;;;;;;;4.62;40.68;93485.94;5014411;28;20591;-74
2022/03/04 10:27:17;;;;;;;31.85;17.75;;;;;;;4.79;40.74;93480.97;5024423;28;20041;-71
2022/03/04 10:29:45;;;;;;;26.85;15.23;;;;;;;5.19;40.15;93494.66;5027179;28;20034;-72
2022/03/04 10:32:13;;;;;;;25.55;15.25;;;;;;;5.45;40.39;93493.16;5017183;28;20107;-72
2022/03/04 10:35:04;;;;;;;25.30;15.32;;;;;;;5.23;39.46;93490.34;5028153;28;20047;-75
2022/03/04 10:37:54;;;;;;;27.10;16.60;;;;;;;5.07;40.04;93485.31;5041908;28;20441;-73
2022/03/04 10:40:25;;;;;;;29.70;16.40;;;;;;;5.28;39.54;93477.88;5025065;28;20033;-72
2022/03/04 10:42:52;;;;;;;32.40;17.13;;;;;;;5.09;40.42;93475.25;5032434;28;20415;-74
2022/03/04 10:45:30;;;;;;;33.58;17.23;;;;;;;4.30;40.17;93425.28;5029977;28;20048;-73
2022/03/04 10:48:03;;;;;;;29.75;15.77;;;;;;;4.69;40.54;93449.50;5026629;28;21248;-73
2022/03/04 10:50:34;;;;;;;29.05;16.70;;;;;;;4.74;40.54;93467.09;5024322;28;20112;-74
2022/03/04 10:53:12;;;;;;;35.85;18.48;;;;;;;4.77;40.02;93435.69;5030337;28;20028;-73
2022/03/04 10:55:56;;;;;;;34.28;17.83;;;;;;;5.37;39.62;93444.50;5020348;28;20017;-70
2022/03/04 10:58:26;;;;;;;35.17;17.77;;;;;;;5.40;39.12;93454.47;5021423;28;20411;-74
2022/03/04 11:01:16;;;;;;;43.50;22.60;;;;;;;5.66;39.20;93454.84;5023089;28;20049;-73
2022/03/04 11:03:42;;;;;;;37.10;19.00;;;;;;;5.98;39.43;93454.75;5038121;28;20057;-73
2022/03/04 11:06:09;;;;;;;42.00;18.40;;;;;;;6.21;39.15;93436.44;5023331;28;20124;-71
2022/03/04 11:08:38;;;;;;;35.95;18.92;;;;;;;6.37;38.66;93450.88;5040718;28;20428;-72
2022/03/04 11:11:05;;;;;;;33.80;17.55;;;;;;;6.35;38.30;93445.91;5023693;28;20096;-75
2022/03/04 11:13:33;;;;;;;37.33;17.98;;;;;;;6.39;37.93;93438.94;5020802;28;20083;-71
2022/03/04 11:16:00;;;;;;;33.67;18.50;;;;;;;5.91;38.21;93425.34;5024741;28;20033;-73
2022/03/04 11:18:26;;;;;;;37.63;19.33;;;;;;;5.82;38.79;93442.91;5016185;28;20483;-73
2022/03/04 11:20:54;;;;;;;30.67;18.77;;;;;;;5.81;38.65;93440.59;5021185;28;20156;-73
2022/03/04 11:23:22;;;;;;;35.60;17.48;;;;;;;5.96;37.97;93435.03;5024255;28;20083;-75
2022/03/04 11:25:55;;;;;;;32.88;17.95;;;;;;;5.82;38.34;93434.25;5024307;28;20025;-73